Bartelso, Illinois
Current Conditions -  °F | °C
As of 12:15 AM on Thursday 29 Jan 2015 (Local Time) from KENL Reporting Station
Clear Clear  
Wind Chill: 37°   Ceiling: Unl
Heat Index: 44°   Visibility: 10mi
Dew Point: 32°   Wind: 15mph
Humidity: 63%   Direction: 170°S
Pressure: 29.86"   Gusts: NA
Location:  38.54°N, 89.47°W
Report Text: KENL 290615Z AUTO 17013KT 10SM CLR 07/00 A2986 RMK AO2 T00670000
Loading
Personal Weather Stations






























Interactive Weather Map New forecast layout! Learn more

10-Day Weather Forecast

Advertisements
Track Severe Weather on mobile